createdAt,value
2023-03-03T00:00:33.349Z,101227.44
2023-03-03T00:03:07.146Z,101229.94
2023-03-03T00:05:36.295Z,101235.31
2023-03-03T00:08:06.206Z,101230.34
2023-03-03T00:10:34.175Z,101230.91
2023-03-03T00:13:02.288Z,101218.00
2023-03-03T00:15:35.462Z,101223.94
2023-03-03T00:18:18.169Z,101220.31
2023-03-03T00:20:50.854Z,101217.66
2023-03-03T00:23:27.533Z,101219.84
2023-03-03T00:25:56.016Z,101229.59
2023-03-03T00:28:27.181Z,101222.50
2023-03-03T00:30:57.740Z,101229.25
2023-03-03T00:33:29.407Z,101231.44
2023-03-03T00:35:58.594Z,101229.50
2023-03-03T00:38:28.270Z,101229.78
2023-03-03T00:40:56.498Z,101231.16
2023-03-03T00:43:27.986Z,101235.66
2023-03-03T00:45:57.963Z,101231.16
2023-03-03T00:48:32.150Z,101234.53
2023-03-03T00:51:01.448Z,101223.06
2023-03-03T00:53:32.081Z,101221.34
2023-03-03T00:56:00.096Z,101218.66
2023-03-03T00:58:37.609Z,101226.59
2023-03-03T01:01:06.444Z,101219.69
2023-03-03T01:03:35.780Z,101209.41
2023-03-03T01:06:03.842Z,101225.34
2023-03-03T01:08:34.958Z,101227.19
2023-03-03T01:11:07.129Z,101222.59
2023-03-03T01:13:38.117Z,101215.94
2023-03-03T01:16:07.336Z,101210.25
2023-03-03T01:18:36.549Z,101217.91
2023-03-03T01:21:05.581Z,101223.06
2023-03-03T01:23:35.305Z,101213.34
2023-03-03T01:26:03.983Z,101215.03
2023-03-03T01:28:31.987Z,101217.50
2023-03-03T01:31:02.181Z,101216.72
2023-03-03T01:33:31.622Z,101211.62
2023-03-03T01:36:00.058Z,101214.25
2023-03-03T01:38:28.381Z,101208.88
2023-03-03T01:41:00.580Z,101207.78
2023-03-03T01:43:31.101Z,101204.34
2023-03-03T01:46:34.467Z,101203.41
2023-03-03T01:49:06.821Z,101213.19
2023-03-03T01:51:38.653Z,101204.50
2023-03-03T01:54:11.884Z,101209.81
2023-03-03T01:56:43.562Z,101201.03
2023-03-03T01:59:15.026Z,101206.63
2023-03-03T02:01:43.729Z,101212.44
2023-03-03T02:04:11.992Z,101222.34
2023-03-03T02:06:42.609Z,101221.16
2023-03-03T02:09:16.301Z,101226.53
2023-03-03T02:11:48.874Z,101219.22
2023-03-03T02:14:17.064Z,101212.09
2023-03-03T02:16:45.958Z,101217.44
2023-03-03T02:19:23.001Z,101216.56
2023-03-03T02:21:51.428Z,101228.53
2023-03-03T02:24:27.483Z,101226.03
2023-03-03T02:26:57.506Z,101224.03
2023-03-03T02:29:25.801Z,101220.44
2023-03-03T02:31:54.590Z,101224.97
2023-03-03T02:34:23.314Z,101221.31
2023-03-03T02:36:51.700Z,101214.13
2023-03-03T02:39:24.146Z,101207.19
2023-03-03T02:41:56.960Z,101200.69
2023-03-03T02:44:29.141Z,101200.72
2023-03-03T02:46:58.769Z,101198.88
2023-03-03T02:49:28.522Z,101183.97
2023-03-03T02:51:56.883Z,101185.75
2023-03-03T02:54:27.330Z,101189.84
2023-03-03T02:56:55.458Z,101188.06
2023-03-03T02:59:23.786Z,101193.06
2023-03-03T03:01:54.084Z,101188.66
2023-03-03T03:04:24.603Z,101195.47
2023-03-03T03:06:53.664Z,101204.22
2023-03-03T03:09:24.405Z,101199.81
2023-03-03T03:11:53.324Z,101197.06
2023-03-03T03:14:23.427Z,101193.16
2023-03-03T03:16:52.447Z,101187.62
2023-03-03T03:19:22.959Z,101193.75
2023-03-03T03:21:51.038Z,101198.72
2023-03-03T03:24:19.513Z,101202.84
2023-03-03T03:26:48.411Z,101201.94
2023-03-03T03:29:16.415Z,101201.81
2023-03-03T03:31:45.366Z,101197.66
2023-03-03T03:34:13.913Z,101195.41
2023-03-03T03:36:43.247Z,101196.03
2023-03-03T03:39:12.352Z,101187.59
2023-03-03T03:41:41.260Z,101191.84
2023-03-03T03:44:09.358Z,101194.75
2023-03-03T03:46:37.422Z,101199.87
2023-03-03T03:49:06.830Z,101204.00
2023-03-03T03:51:38.284Z,101210.25
2023-03-03T03:54:08.632Z,101213.81
2023-03-03T03:56:37.057Z,101206.72
2023-03-03T03:59:07.446Z,101214.59
2023-03-03T04:01:36.461Z,101217.91
2023-03-03T04:04:05.132Z,101221.16
2023-03-03T04:06:33.273Z,101218.25
2023-03-03T04:09:01.735Z,101220.78
2023-03-03T04:11:31.500Z,101228.53
2023-03-03T04:13:59.773Z,101232.91
2023-03-03T04:16:28.089Z,101233.22
2023-03-03T04:18:57.070Z,101233.56
2023-03-03T04:21:25.455Z,101234.72
2023-03-03T04:23:54.485Z,101235.84
2023-03-03T04:26:22.770Z,101236.53
2023-03-03T04:28:52.189Z,101232.34
2023-03-03T04:31:20.932Z,101229.38
2023-03-03T04:33:49.339Z,101226.75
2023-03-03T04:36:18.227Z,101222.06
2023-03-03T04:38:46.322Z,101233.22
2023-03-03T04:41:14.985Z,101223.53
2023-03-03T04:43:43.155Z,101222.59
2023-03-03T04:46:14.258Z,101233.87
2023-03-03T04:48:42.989Z,101232.53
2023-03-03T04:51:11.273Z,101234.13
2023-03-03T04:53:39.543Z,101243.72
2023-03-03T04:56:08.750Z,101244.19
2023-03-03T04:58:37.185Z,101252.69
2023-03-03T05:01:05.528Z,101250.97
2023-03-03T05:03:35.370Z,101244.00
2023-03-03T05:06:03.543Z,101246.66
2023-03-03T05:08:31.573Z,101253.50
2023-03-03T05:10:59.888Z,101240.34
2023-03-03T05:13:28.209Z,101241.25
2023-03-03T05:15:57.252Z,101232.44
2023-03-03T05:18:27.576Z,101237.88
2023-03-03T05:20:56.852Z,101235.97
2023-03-03T05:23:25.152Z,101229.22
2023-03-03T05:25:53.429Z,101225.66
2023-03-03T05:28:21.434Z,101236.03
2023-03-03T05:30:49.600Z,101230.59
2023-03-03T05:33:18.901Z,101233.09
2023-03-03T05:35:47.152Z,101230.28
2023-03-03T05:38:16.423Z,101236.50
2023-03-03T05:40:45.413Z,101239.94
2023-03-03T05:43:13.476Z,101229.53
2023-03-03T05:45:41.505Z,101227.84
2023-03-03T05:48:11.155Z,101236.63
2023-03-03T05:50:40.086Z,101231.38
2023-03-03T05:53:08.317Z,101242.78
2023-03-03T05:55:38.040Z,101239.88
2023-03-03T05:58:06.027Z,101234.78
2023-03-03T06:00:33.971Z,101248.06
2023-03-03T06:03:02.265Z,101250.72
2023-03-03T06:05:30.345Z,101248.72
2023-03-03T06:07:58.648Z,101253.25
2023-03-03T06:10:27.246Z,101250.37
2023-03-03T06:12:58.519Z,101251.19
2023-03-03T06:15:26.886Z,101243.41
2023-03-03T06:17:55.086Z,101234.38
2023-03-03T06:20:23.123Z,101239.69
2023-03-03T06:22:51.408Z,101245.66
2023-03-03T06:25:19.702Z,101248.16
2023-03-03T06:27:47.779Z,101254.44
2023-03-03T06:30:19.006Z,101250.03
2023-03-03T06:32:47.355Z,101253.56
2023-03-03T06:35:15.729Z,101260.63
2023-03-03T06:37:43.835Z,101258.16
2023-03-03T06:40:13.585Z,101271.91
2023-03-03T06:42:42.154Z,101270.03
2023-03-03T06:45:10.843Z,101285.91
2023-03-03T06:47:40.464Z,101287.66
2023-03-03T06:50:10.985Z,101295.69
2023-03-03T06:52:39.370Z,101288.38
2023-03-03T06:55:14.532Z,101298.94
2023-03-03T06:57:43.248Z,101288.22
2023-03-03T07:00:20.132Z,101294.22
2023-03-03T07:02:57.375Z,101297.69
2023-03-03T07:05:29.053Z,101292.38
2023-03-03T07:07:57.611Z,101294.94
2023-03-03T07:10:30.517Z,101296.53
2023-03-03T07:13:12.073Z,101295.50
2023-03-03T07:15:39.972Z,101296.44
2023-03-03T07:18:26.581Z,101299.81
2023-03-03T07:20:54.542Z,101287.13
2023-03-03T07:23:25.616Z,101295.03
2023-03-03T07:25:53.881Z,101307.22
2023-03-03T07:28:25.539Z,101304.59
2023-03-03T07:30:54.664Z,101297.47
2023-03-03T07:33:28.563Z,101304.37
2023-03-03T07:35:58.749Z,101306.69
2023-03-03T07:38:32.897Z,101311.78
2023-03-03T07:41:03.997Z,101317.56
2023-03-03T07:43:36.607Z,101328.66
2023-03-03T07:46:22.867Z,101331.50
2023-03-03T07:48:54.153Z,101333.47
2023-03-03T07:51:25.402Z,101338.25
2023-03-03T07:53:55.134Z,101336.91
2023-03-03T07:56:30.464Z,101329.63
2023-03-03T07:58:59.595Z,101333.88
2023-03-03T08:01:40.849Z,101329.06
2023-03-03T08:04:23.509Z,101323.44
2023-03-03T08:06:53.805Z,101332.72
2023-03-03T08:09:38.462Z,101330.38
2023-03-03T08:12:42.045Z,101322.13
2023-03-03T08:15:20.779Z,101325.37
2023-03-03T08:17:50.180Z,101313.78
2023-03-03T08:20:44.809Z,101326.16
2023-03-03T08:23:13.538Z,101325.75
2023-03-03T08:25:42.807Z,101335.44
2023-03-03T08:28:11.791Z,101342.41
2023-03-03T08:30:39.995Z,101336.28
2023-03-03T08:33:08.561Z,101344.78
2023-03-03T08:35:38.008Z,101352.69
2023-03-03T08:38:06.309Z,101337.63
2023-03-03T08:40:35.069Z,101347.97
2023-03-03T08:43:03.432Z,101336.31
2023-03-03T08:45:32.313Z,101338.09
2023-03-03T08:48:01.266Z,101346.03
2023-03-03T08:50:30.311Z,101345.37
2023-03-03T08:52:59.737Z,101342.44
2023-03-03T08:55:28.140Z,101337.81
2023-03-03T08:57:56.112Z,101341.19
2023-03-03T09:00:25.066Z,101345.00
2023-03-03T09:02:54.282Z,101356.19
2023-03-03T09:05:23.593Z,101350.94
2023-03-03T09:07:52.388Z,101353.56
2023-03-03T09:10:30.839Z,101353.09
2023-03-03T09:13:01.976Z,101355.44
2023-03-03T09:15:31.989Z,101347.38
2023-03-03T09:18:01.306Z,101344.47
2023-03-03T09:20:34.333Z,101346.91
2023-03-03T09:23:33.731Z,101354.12
2023-03-03T09:26:23.282Z,101356.25
2023-03-03T09:28:51.510Z,101360.09
2023-03-03T09:31:27.086Z,101349.47
2023-03-03T09:33:57.838Z,101351.72
2023-03-03T09:36:29.035Z,101357.75
2023-03-03T09:38:59.080Z,101354.00
2023-03-03T09:42:03.762Z,101362.50
2023-03-03T09:44:45.921Z,101346.50
2023-03-03T09:47:35.947Z,101346.81
2023-03-03T09:50:16.664Z,101347.28
2023-03-03T09:52:53.776Z,101333.84
2023-03-03T09:55:37.245Z,101343.34
2023-03-03T09:58:26.097Z,101349.28
2023-03-03T10:01:05.904Z,101341.66
2023-03-03T10:04:02.260Z,101334.63
2023-03-03T10:06:34.911Z,101346.63
2023-03-03T10:09:23.759Z,101347.75
2023-03-03T10:12:00.844Z,101351.41
2023-03-03T10:14:54.122Z,101356.59
2023-03-03T10:17:34.355Z,101358.47
2023-03-03T10:20:26.285Z,101350.44
2023-03-03T10:22:57.020Z,101356.66
2023-03-03T10:25:42.284Z,101349.44
2023-03-03T10:28:36.577Z,101344.56
2023-03-03T10:31:18.587Z,101346.22
2023-03-03T10:33:54.521Z,101351.13
2023-03-03T10:36:36.135Z,101348.94
2023-03-03T10:39:19.638Z,101348.34
2023-03-03T10:42:10.159Z,101350.19
2023-03-03T10:44:54.329Z,101346.72
2023-03-03T10:47:35.719Z,101345.81
2023-03-03T10:50:15.996Z,101346.41
2023-03-03T10:52:50.481Z,101350.91
2023-03-03T10:55:39.648Z,101353.00
2023-03-03T10:58:33.182Z,101351.75
2023-03-03T11:01:09.613Z,101354.41
2023-03-03T11:04:09.657Z,101355.25
2023-03-03T11:06:46.472Z,101354.16
2023-03-03T11:09:31.890Z,101352.94
2023-03-03T11:12:09.028Z,101345.56
2023-03-03T11:14:47.812Z,101354.47
2023-03-03T11:17:21.622Z,101346.03
2023-03-03T11:20:02.629Z,101349.78
2023-03-03T11:22:42.038Z,101351.22
2023-03-03T11:25:24.113Z,101345.25
2023-03-03T11:28:09.433Z,101340.97
2023-03-03T11:30:59.944Z,101342.75
2023-03-03T11:33:35.471Z,101343.59
2023-03-03T11:36:12.771Z,101340.41
2023-03-03T11:38:49.446Z,101332.84
2023-03-03T11:41:35.865Z,101336.44
2023-03-03T11:44:12.532Z,101336.03
2023-03-03T11:46:47.337Z,101338.00
2023-03-03T11:49:22.697Z,101341.66
2023-03-03T11:52:03.185Z,101335.59
2023-03-03T11:54:37.844Z,101331.87
2023-03-03T11:57:18.917Z,101328.53
2023-03-03T11:59:57.131Z,101335.47
2023-03-03T12:02:43.951Z,101331.81
2023-03-03T12:05:26.775Z,101339.31
2023-03-03T12:08:08.048Z,101322.00
2023-03-03T12:10:44.009Z,101325.78
2023-03-03T12:13:23.189Z,101324.13
2023-03-03T12:15:56.570Z,101317.66
2023-03-03T12:18:43.745Z,101318.81
2023-03-03T12:21:24.089Z,101312.94
2023-03-03T12:24:09.391Z,101316.66
2023-03-03T12:26:48.568Z,101308.88
2023-03-03T12:29:28.841Z,101314.50
2023-03-03T12:32:05.688Z,101315.50
2023-03-03T12:34:39.941Z,101314.69
2023-03-03T12:37:21.938Z,101307.31
2023-03-03T12:40:03.628Z,101309.00
2023-03-03T12:42:48.897Z,101304.13
2023-03-03T12:45:34.515Z,101300.66
2023-03-03T12:48:09.929Z,101303.53
2023-03-03T12:50:55.833Z,101298.25
2023-03-03T12:53:35.358Z,101295.53
2023-03-03T12:56:08.803Z,101287.22
2023-03-03T12:58:47.484Z,101289.78
2023-03-03T13:01:33.677Z,101288.81
2023-03-03T13:04:08.794Z,101283.66
2023-03-03T13:06:43.970Z,101281.03
2023-03-03T13:09:23.459Z,101280.13
2023-03-03T13:12:06.189Z,101286.44
2023-03-03T13:14:44.454Z,101282.38
2023-03-03T13:17:20.907Z,101280.34
2023-03-03T13:19:55.502Z,101289.78
2023-03-03T13:22:35.662Z,101286.69
2023-03-03T13:25:09.851Z,101293.38
2023-03-03T13:27:41.959Z,101294.03
2023-03-03T13:30:21.184Z,101286.69
2023-03-03T13:32:55.970Z,101281.94
2023-03-03T13:35:34.901Z,101280.56
2023-03-03T13:38:05.889Z,101280.22
2023-03-03T13:40:42.472Z,101275.00
2023-03-03T13:43:19.292Z,101274.53
2023-03-03T13:45:59.921Z,101266.16
2023-03-03T13:48:43.180Z,101266.31
2023-03-03T13:51:19.566Z,101259.44
2023-03-03T13:53:54.722Z,101261.47
2023-03-03T13:56:39.375Z,101255.25
2023-03-03T13:59:17.789Z,101249.38
2023-03-03T14:01:56.882Z,101251.63
2023-03-03T14:04:35.664Z,101246.81
2023-03-03T14:07:14.463Z,101249.03
2023-03-03T14:09:57.489Z,101242.44
2023-03-03T14:12:35.493Z,101241.16
2023-03-03T14:15:12.686Z,101236.78
2023-03-03T14:17:54.831Z,101232.91
2023-03-03T14:20:29.042Z,101229.03
2023-03-03T14:23:00.569Z,101220.56
2023-03-03T14:25:53.549Z,101219.84
2023-03-03T14:28:24.180Z,101212.31
2023-03-03T14:30:56.404Z,101213.22
2023-03-03T14:33:30.938Z,101211.19
2023-03-03T14:36:16.055Z,101208.03
2023-03-03T14:38:51.696Z,101208.66
2023-03-03T14:41:23.853Z,101208.81
2023-03-03T14:44:00.673Z,101203.84
2023-03-03T14:46:36.490Z,101208.34
2023-03-03T14:49:07.889Z,101199.75
2023-03-03T14:51:45.117Z,101206.63
2023-03-03T14:54:23.606Z,101211.66
2023-03-03T14:57:13.281Z,101206.47
2023-03-03T14:59:41.855Z,101202.34
2023-03-03T15:02:32.896Z,101197.09
2023-03-03T15:05:29.552Z,101195.78
2023-03-03T15:07:59.800Z,101198.34
2023-03-03T15:10:34.732Z,101198.75
2023-03-03T15:13:34.376Z,101208.62
2023-03-03T15:16:06.551Z,101198.50
2023-03-03T15:18:51.961Z,101202.06
2023-03-03T15:21:26.860Z,101205.94
2023-03-03T15:24:00.869Z,101200.03
2023-03-03T15:26:39.759Z,101201.62
2023-03-03T15:29:17.298Z,101204.13
2023-03-03T15:31:53.244Z,101204.47
2023-03-03T15:34:40.592Z,101202.00
2023-03-03T15:37:22.345Z,101200.22
2023-03-03T15:39:58.234Z,101206.66
2023-03-03T15:42:35.840Z,101202.72
2023-03-03T15:45:15.383Z,101195.66
2023-03-03T15:47:57.245Z,101204.94
2023-03-03T15:50:36.308Z,101199.41
2023-03-03T15:53:27.820Z,101202.13
2023-03-03T15:56:13.064Z,101202.44
2023-03-03T15:59:08.790Z,101204.47
2023-03-03T16:01:45.240Z,101204.28
2023-03-03T16:04:16.859Z,101187.53
2023-03-03T16:06:58.808Z,101191.53
2023-03-03T16:09:42.791Z,101194.84
2023-03-03T16:12:22.545Z,101185.56
2023-03-03T16:15:07.396Z,101182.13
2023-03-03T16:17:48.381Z,101188.63
2023-03-03T16:20:24.222Z,101180.41
2023-03-03T16:23:26.290Z,101184.94
2023-03-03T16:26:06.045Z,101189.50
2023-03-03T16:28:48.027Z,101187.41
2023-03-03T16:31:22.929Z,101193.94
2023-03-03T16:34:01.095Z,101193.37
2023-03-03T16:36:36.149Z,101193.84
2023-03-03T16:39:09.951Z,101184.00
2023-03-03T16:41:48.207Z,101184.25
2023-03-03T16:44:35.610Z,101187.66
2023-03-03T16:47:17.265Z,101186.03
2023-03-03T16:49:52.856Z,101186.22
2023-03-03T16:52:26.577Z,101190.44
2023-03-03T16:54:58.227Z,101199.00
2023-03-03T16:57:35.426Z,101201.19
2023-03-03T17:00:10.485Z,101202.22
2023-03-03T17:03:13.418Z,101204.28
2023-03-03T17:05:49.776Z,101206.47
2023-03-03T17:08:34.892Z,101208.59
2023-03-03T17:11:12.638Z,101205.22
2023-03-03T17:13:57.603Z,101214.72
2023-03-03T17:16:49.809Z,101215.75
2023-03-03T17:19:32.224Z,101210.47
2023-03-03T17:22:13.539Z,101218.28
2023-03-03T17:24:54.073Z,101209.66
2023-03-03T17:27:29.116Z,101216.78
2023-03-03T17:30:07.570Z,101212.47
2023-03-03T17:32:59.926Z,101207.13
2023-03-03T17:35:53.692Z,101204.38
2023-03-03T17:38:36.068Z,101205.22
2023-03-03T17:41:09.986Z,101200.41
2023-03-03T17:43:48.488Z,101206.69
2023-03-03T17:46:24.540Z,101208.69
2023-03-03T17:49:31.721Z,101209.66
2023-03-03T17:52:21.255Z,101201.62
2023-03-03T17:55:06.619Z,101204.50
2023-03-03T17:57:52.082Z,101201.22
2023-03-03T18:00:37.150Z,101201.59
2023-03-03T18:03:35.936Z,101198.41
2023-03-03T18:06:27.679Z,101194.34
2023-03-03T18:09:16.144Z,101201.59
2023-03-03T18:12:00.024Z,101203.63
2023-03-03T18:14:45.900Z,101209.19
2023-03-03T18:17:34.708Z,101215.66
2023-03-03T18:20:24.765Z,101206.31
2023-03-03T18:22:54.199Z,101206.59
2023-03-03T18:25:24.068Z,101207.75
2023-03-03T18:28:20.624Z,101204.41
2023-03-03T18:30:57.480Z,101205.47
2023-03-03T18:33:37.918Z,101196.16
2023-03-03T18:36:15.929Z,101200.75
2023-03-03T18:38:47.902Z,101200.06
2023-03-03T18:41:24.675Z,101210.75
2023-03-03T18:43:58.282Z,101200.38
2023-03-03T18:47:00.445Z,101212.09
2023-03-03T18:49:52.580Z,101211.38
2023-03-03T18:52:26.398Z,101217.69
2023-03-03T18:55:22.776Z,101209.13
2023-03-03T18:58:31.162Z,101206.59
2023-03-03T19:01:03.770Z,101210.34
2023-03-03T19:03:37.478Z,101209.63
2023-03-03T19:06:10.297Z,101203.66
2023-03-03T19:08:56.242Z,101210.59
2023-03-03T19:11:38.640Z,101211.44
2023-03-03T19:14:19.328Z,101210.53
2023-03-03T19:16:49.677Z,101214.06
2023-03-03T19:19:19.561Z,101211.44
2023-03-03T19:21:51.341Z,101210.59
2023-03-03T19:24:30.989Z,101210.78
2023-03-03T19:27:14.773Z,101214.31
2023-03-03T19:30:01.941Z,101214.44
2023-03-03T19:33:02.367Z,101222.34
2023-03-03T19:35:38.743Z,101218.12
2023-03-03T19:38:20.329Z,101219.09
2023-03-03T19:41:00.284Z,101223.34
2023-03-03T19:43:42.009Z,101219.78
2023-03-03T19:46:34.726Z,101225.88
2023-03-03T19:49:14.004Z,101225.88
2023-03-03T19:51:48.921Z,101222.34
2023-03-03T19:54:32.813Z,101225.75
2023-03-03T19:57:06.869Z,101223.97
2023-03-03T19:59:42.346Z,101222.25
2023-03-03T20:02:31.529Z,101230.00
2023-03-03T20:05:14.643Z,101226.41
2023-03-03T20:07:50.785Z,101228.00
2023-03-03T20:10:45.113Z,101230.53
2023-03-03T20:13:41.120Z,101231.34
2023-03-03T20:16:19.648Z,101223.19
2023-03-03T20:19:10.529Z,101232.00
2023-03-03T20:21:45.620Z,101221.28
2023-03-03T20:24:39.658Z,101223.81
2023-03-03T20:27:16.146Z,101222.97
2023-03-03T20:30:00.276Z,101218.47
2023-03-03T20:32:42.714Z,101227.56
2023-03-03T20:35:24.692Z,101221.84
2023-03-03T20:38:04.645Z,101223.41
2023-03-03T20:40:40.076Z,101219.72
2023-03-03T20:43:21.464Z,101223.13
2023-03-03T20:46:01.342Z,101218.81
2023-03-03T20:48:44.159Z,101218.53
2023-03-03T20:51:19.126Z,101221.13
2023-03-03T20:53:57.756Z,101220.16
2023-03-03T20:56:32.912Z,101228.38
2023-03-03T20:59:14.458Z,101233.59
2023-03-03T21:01:53.195Z,101237.13
2023-03-03T21:04:24.569Z,101234.75
2023-03-03T21:06:53.290Z,101233.78
2023-03-03T21:09:27.974Z,101226.84
2023-03-03T21:11:56.469Z,101222.16
2023-03-03T21:14:27.310Z,101223.91
2023-03-03T21:16:58.685Z,101219.34
2023-03-03T21:19:30.278Z,101220.63
2023-03-03T21:22:02.139Z,101221.41
2023-03-03T21:24:51.371Z,101219.53
2023-03-03T21:27:28.454Z,101210.81
2023-03-03T21:30:05.974Z,101210.69
2023-03-03T21:32:41.702Z,101205.69
2023-03-03T21:35:12.177Z,101195.16
2023-03-03T21:37:48.742Z,101192.38
2023-03-03T21:40:21.039Z,101187.59
2023-03-03T21:42:49.657Z,101190.88
2023-03-03T21:45:20.644Z,101184.75
2023-03-03T21:47:50.787Z,101182.22
2023-03-03T21:50:21.573Z,101185.25
2023-03-03T21:52:49.924Z,101169.28
2023-03-03T21:55:18.509Z,101170.13
2023-03-03T21:57:46.702Z,101171.84
2023-03-03T22:00:15.349Z,101161.72
2023-03-03T22:02:43.741Z,101160.06
2023-03-03T22:05:13.163Z,101165.31
2023-03-03T22:07:41.307Z,101157.22
2023-03-03T22:10:11.028Z,101157.16
2023-03-03T22:12:39.222Z,101146.84
2023-03-03T22:15:08.110Z,101147.56
2023-03-03T22:17:36.495Z,101151.97
2023-03-03T22:20:05.211Z,101143.00
2023-03-03T22:22:34.676Z,101152.03
2023-03-03T22:25:03.281Z,101149.34
2023-03-03T22:27:31.308Z,101141.38
2023-03-03T22:29:59.365Z,101143.91
2023-03-03T22:32:28.522Z,101143.16
2023-03-03T22:34:56.708Z,101143.75
2023-03-03T22:37:24.618Z,101134.50
2023-03-03T22:39:54.189Z,101135.09
2023-03-03T22:42:23.401Z,101140.31
2023-03-03T22:44:51.472Z,101137.69
2023-03-03T22:47:19.960Z,101136.84
2023-03-03T22:49:48.151Z,101127.16
2023-03-03T22:52:16.134Z,101133.13
2023-03-03T22:54:44.414Z,101128.87
2023-03-03T22:57:13.769Z,101125.22
2023-03-03T22:59:41.706Z,101130.53
2023-03-03T23:02:09.989Z,101121.75
2023-03-03T23:04:39.187Z,101124.31
2023-03-03T23:07:07.286Z,101115.72
2023-03-03T23:09:35.613Z,101113.75
2023-03-03T23:12:03.691Z,101107.66
2023-03-03T23:14:33.174Z,101109.56
2023-03-03T23:17:01.810Z,101111.31
2023-03-03T23:19:29.841Z,101105.13
2023-03-03T23:21:58.348Z,101092.62
2023-03-03T23:24:26.648Z,101094.34
2023-03-03T23:26:57.421Z,101095.13
2023-03-03T23:29:25.757Z,101095.41
2023-03-03T23:31:55.539Z,101092.62
2023-03-03T23:34:23.670Z,101093.81
2023-03-03T23:36:51.650Z,101085.41
2023-03-03T23:39:20.144Z,101087.03
2023-03-03T23:41:48.102Z,101080.00
2023-03-03T23:44:16.107Z,101081.66
2023-03-03T23:46:44.580Z,101074.09
2023-03-03T23:49:13.958Z,101070.94
2023-03-03T23:51:42.785Z,101056.91
2023-03-03T23:54:11.128Z,101067.03
2023-03-03T23:56:39.116Z,101059.97
2023-03-03T23:59:07.188Z,101059.56
